createdAt,value
2023-05-06T00:00:12.652Z,16.57
2023-05-06T00:02:40.965Z,18.20
2023-05-06T00:05:10.040Z,17.90
2023-05-06T00:07:38.536Z,18.17
2023-05-06T00:10:09.522Z,19.40
2023-05-06T00:12:37.912Z,16.87
2023-05-06T00:15:07.848Z,18.83
2023-05-06T00:17:36.490Z,26.57
2023-05-06T00:20:06.173Z,26.63
2023-05-06T00:22:34.849Z,26.53
2023-05-06T00:25:03.115Z,25.67
2023-05-06T00:27:35.014Z,30.10
2023-05-06T00:30:03.383Z,29.80
2023-05-06T00:32:31.866Z,29.83
2023-05-06T00:35:00.245Z,32.43
2023-05-06T00:37:28.609Z,33.00
2023-05-06T00:39:56.959Z,30.77
2023-05-06T00:42:25.352Z,34.43
2023-05-06T00:44:55.396Z,35.70
2023-05-06T00:47:24.288Z,33.80
2023-05-06T00:49:52.570Z,36.57
2023-05-06T00:52:21.197Z,36.90
2023-05-06T00:54:49.916Z,37.83
2023-05-06T00:57:18.455Z,42.50
2023-05-06T00:59:46.719Z,38.13
2023-05-06T01:02:16.565Z,35.20
2023-05-06T01:04:45.524Z,33.70
2023-05-06T01:07:27.875Z,38.17
2023-05-06T01:10:08.905Z,36.23
2023-05-06T01:12:44.999Z,33.30
2023-05-06T01:15:18.544Z,31.77
2023-05-06T01:17:51.300Z,33.87
2023-05-06T01:20:22.111Z,34.77
2023-05-06T01:22:51.116Z,34.27
2023-05-06T01:25:21.912Z,34.67
2023-05-06T01:27:50.675Z,35.87
2023-05-06T01:30:20.613Z,32.87
2023-05-06T01:32:58.117Z,35.03
2023-05-06T01:35:33.976Z,32.27
2023-05-06T01:38:10.368Z,34.83
2023-05-06T01:40:42.240Z,37.43
2023-05-06T01:43:13.581Z,35.07
2023-05-06T01:45:49.463Z,35.00
2023-05-06T01:48:18.713Z,34.33
2023-05-06T01:50:47.128Z,33.83
2023-05-06T01:53:15.476Z,29.43
2023-05-06T01:55:45.406Z,29.83
2023-05-06T01:58:13.789Z,33.57
2023-05-06T02:00:43.048Z,31.83
2023-05-06T02:03:11.449Z,29.37
2023-05-06T02:05:39.781Z,26.70
2023-05-06T02:08:08.531Z,28.30
2023-05-06T02:10:36.912Z,28.87
2023-05-06T02:13:12.492Z,27.07
2023-05-06T02:15:40.873Z,26.53
2023-05-06T02:18:13.556Z,27.63
2023-05-06T02:20:41.933Z,29.27
2023-05-06T02:23:18.250Z,28.13
2023-05-06T02:25:47.849Z,27.07
2023-05-06T02:28:17.606Z,26.57
2023-05-06T02:30:46.078Z,27.33
2023-05-06T02:33:14.477Z,29.07
2023-05-06T02:35:42.809Z,30.20
2023-05-06T02:38:11.146Z,34.17
2023-05-06T02:40:39.566Z,29.73
2023-05-06T02:43:07.821Z,31.10
2023-05-06T02:45:37.591Z,29.87
2023-05-06T02:48:06.440Z,29.03
2023-05-06T02:50:35.952Z,25.10
2023-05-06T02:53:04.304Z,29.37
2023-05-06T02:55:32.600Z,27.50
2023-05-06T02:58:00.810Z,36.00
2023-05-06T03:00:29.107Z,36.37
2023-05-06T03:02:59.089Z,44.73
2023-05-06T03:05:27.342Z,29.13
2023-05-06T03:07:55.565Z,40.80
2023-05-06T03:10:23.983Z,41.33
2023-05-06T03:12:52.520Z,43.37
2023-05-06T03:15:20.982Z,42.33
2023-05-06T03:17:49.331Z,29.77
2023-05-06T03:20:19.582Z,35.30
2023-05-06T03:22:55.752Z,31.43
2023-05-06T03:25:25.128Z,25.00
2023-05-06T03:27:54.109Z,24.53
2023-05-06T03:30:24.514Z,32.03
2023-05-06T03:32:57.186Z,25.10
2023-05-06T03:35:32.375Z,25.17
2023-05-06T03:38:02.245Z,35.63
2023-05-06T03:40:46.729Z,28.40
2023-05-06T03:43:16.742Z,36.90
2023-05-06T03:45:47.500Z,28.33
2023-05-06T03:48:16.135Z,26.80
2023-05-06T03:50:47.591Z,38.43
2023-05-06T03:53:16.916Z,39.00
2023-05-06T03:55:47.198Z,26.10
2023-05-06T03:58:15.670Z,31.77
2023-05-06T04:00:46.937Z,29.80
2023-05-06T04:03:15.813Z,27.13
2023-05-06T04:05:50.589Z,27.30
2023-05-06T04:08:22.331Z,31.67
2023-05-06T04:10:50.633Z,24.93
2023-05-06T04:13:27.708Z,23.60
2023-05-06T04:15:58.816Z,24.73
2023-05-06T04:18:34.336Z,29.10
2023-05-06T04:21:10.712Z,26.03
2023-05-06T04:23:39.345Z,31.33
2023-05-06T04:26:08.633Z,33.50
2023-05-06T04:28:39.060Z,38.03
2023-05-06T04:31:09.034Z,33.40
2023-05-06T04:33:43.090Z,26.77
2023-05-06T04:36:17.334Z,26.30
2023-05-06T04:38:55.827Z,46.53
2023-05-06T04:41:25.902Z,32.20
2023-05-06T04:43:54.223Z,28.43
2023-05-06T04:46:24.803Z,24.87
2023-05-06T04:48:55.109Z,23.13
2023-05-06T04:51:26.801Z,30.40
2023-05-06T04:53:55.343Z,25.23
2023-05-06T04:56:23.678Z,27.37
2023-05-06T04:58:51.889Z,22.03
2023-05-06T05:01:21.005Z,23.30
2023-05-06T05:03:51.763Z,31.93
2023-05-06T05:06:22.265Z,33.93
2023-05-06T05:08:53.060Z,39.80
2023-05-06T05:11:22.414Z,30.00
2023-05-06T05:13:50.872Z,31.37
2023-05-06T05:16:19.176Z,25.70
2023-05-06T05:18:48.222Z,29.00
2023-05-06T05:21:21.297Z,26.27
2023-05-06T05:23:51.399Z,24.10
2023-05-06T05:26:20.538Z,21.73
2023-05-06T05:28:49.905Z,21.47
2023-05-06T05:31:18.249Z,23.73
2023-05-06T05:33:47.726Z,21.33
2023-05-06T05:36:19.497Z,22.03
2023-05-06T05:38:49.340Z,22.73
2023-05-06T05:41:19.760Z,22.10
2023-05-06T05:43:48.414Z,19.43
2023-05-06T05:46:17.858Z,25.63
2023-05-06T05:48:48.656Z,20.43
2023-05-06T05:51:18.355Z,18.23
2023-05-06T05:53:47.594Z,19.93
2023-05-06T05:56:16.682Z,21.23
2023-05-06T05:58:48.094Z,18.20
2023-05-06T06:01:16.426Z,16.63
2023-05-06T06:03:48.854Z,14.27
2023-05-06T06:06:20.409Z,12.63
2023-05-06T06:08:49.210Z,12.90
2023-05-06T06:11:17.859Z,14.83
2023-05-06T06:13:47.936Z,13.07
2023-05-06T06:16:16.679Z,10.77
2023-05-06T06:18:44.932Z,10.83
2023-05-06T06:21:13.305Z,9.53
2023-05-06T06:23:41.996Z,10.30
2023-05-06T06:26:12.194Z,9.63
2023-05-06T06:28:41.907Z,12.20
2023-05-06T06:31:11.667Z,11.50
2023-05-06T06:33:39.967Z,11.37
2023-05-06T06:36:09.176Z,10.80
2023-05-06T06:38:37.653Z,12.30
2023-05-06T06:41:06.245Z,12.87
2023-05-06T06:43:34.519Z,14.13
2023-05-06T06:46:08.423Z,16.57
2023-05-06T06:48:38.083Z,16.63
2023-05-06T06:51:06.769Z,17.33
2023-05-06T06:53:35.037Z,18.90
2023-05-06T06:56:03.323Z,18.10
2023-05-06T06:58:31.515Z,17.60
2023-05-06T07:00:59.796Z,17.87
2023-05-06T07:03:28.088Z,18.70
2023-05-06T07:05:57.779Z,17.83
2023-05-06T07:08:26.089Z,16.60
2023-05-06T07:10:55.387Z,13.10
2023-05-06T07:13:24.003Z,12.50
2023-05-06T07:15:52.347Z,11.33
2023-05-06T07:18:20.664Z,11.27
2023-05-06T07:20:48.876Z,11.40
2023-05-06T07:23:18.519Z,11.90
2023-05-06T07:25:46.784Z,11.90
2023-05-06T07:28:15.635Z,12.50
2023-05-06T07:30:44.057Z,10.97
2023-05-06T07:33:12.393Z,10.63
2023-05-06T07:35:40.660Z,11.37
2023-05-06T07:38:08.897Z,12.57
2023-05-06T07:40:38.502Z,14.17
2023-05-06T07:43:07.320Z,12.30
2023-05-06T07:45:35.931Z,13.17
2023-05-06T07:48:04.299Z,15.90
2023-05-06T07:50:32.709Z,12.10
2023-05-06T07:53:01.720Z,11.63
2023-05-06T07:55:29.898Z,12.07
2023-05-06T07:57:59.412Z,10.50
2023-05-06T08:00:27.728Z,9.50
2023-05-06T08:02:56.201Z,9.30
2023-05-06T08:05:24.487Z,9.50
2023-05-06T08:07:54.042Z,9.90
2023-05-06T08:10:23.516Z,10.40
2023-05-06T08:12:51.945Z,10.27
2023-05-06T08:15:22.785Z,10.93
2023-05-06T08:17:51.502Z,7.30
2023-05-06T08:20:19.832Z,7.60
2023-05-06T08:22:48.114Z,5.82
2023-05-06T08:25:17.012Z,7.70
2023-05-06T08:27:45.586Z,6.83
2023-05-06T08:30:15.157Z,5.50
2023-05-06T08:32:44.816Z,6.40
2023-05-06T08:35:13.597Z,6.88
2023-05-06T08:37:42.357Z,5.93
2023-05-06T08:40:18.970Z,4.80
2023-05-06T08:42:48.292Z,4.57
2023-05-06T08:45:18.044Z,5.28
2023-05-06T08:47:48.062Z,4.30
2023-05-06T08:50:16.669Z,4.82
2023-05-06T08:52:46.046Z,4.35
2023-05-06T08:55:15.629Z,3.88
2023-05-06T08:57:46.340Z,4.30
2023-05-06T09:00:16.018Z,4.70
2023-05-06T09:02:44.539Z,4.47
2023-05-06T09:05:14.618Z,3.22
2023-05-06T09:07:42.997Z,3.15
2023-05-06T09:10:15.139Z,3.28
2023-05-06T09:12:43.491Z,2.95
2023-05-06T09:15:13.027Z,2.83
2023-05-06T09:17:41.627Z,2.80
2023-05-06T09:20:14.436Z,2.28
2023-05-06T09:22:42.926Z,2.00
2023-05-06T09:25:12.073Z,1.95
2023-05-06T09:27:41.192Z,1.90
2023-05-06T09:30:11.648Z,2.10
2023-05-06T09:32:40.586Z,1.70
2023-05-06T09:35:11.828Z,1.70
2023-05-06T09:37:41.630Z,1.70
2023-05-06T09:40:10.988Z,1.80
2023-05-06T09:42:39.637Z,1.80
2023-05-06T09:45:10.784Z,1.50
2023-05-06T09:47:39.364Z,1.70
2023-05-06T09:50:11.264Z,1.73
2023-05-06T09:52:41.311Z,1.60
2023-05-06T09:55:12.151Z,2.00
2023-05-06T09:57:41.935Z,1.90
2023-05-06T10:00:12.183Z,1.90
2023-05-06T10:02:45.599Z,1.90
2023-05-06T10:05:14.803Z,2.10
2023-05-06T10:07:45.268Z,1.77
2023-05-06T10:10:13.783Z,2.20
2023-05-06T10:12:42.195Z,2.60
2023-05-06T10:15:11.562Z,2.10
2023-05-06T10:17:42.391Z,2.90
2023-05-06T10:20:14.610Z,2.45
2023-05-06T10:22:53.562Z,2.25
2023-05-06T10:25:31.208Z,2.22
2023-05-06T10:28:00.039Z,2.45
2023-05-06T10:30:30.884Z,2.30
2023-05-06T10:33:04.322Z,4.28
2023-05-06T10:35:42.182Z,1.90
2023-05-06T10:38:16.635Z,1.80
2023-05-06T10:40:45.724Z,1.90
2023-05-06T10:43:28.616Z,2.53
2023-05-06T10:46:01.829Z,2.10
2023-05-06T10:48:30.353Z,1.90
2023-05-06T10:51:27.281Z,1.90
2023-05-06T10:54:03.846Z,1.70
2023-05-06T10:56:34.625Z,1.80
2023-05-06T10:59:08.178Z,2.20
2023-05-06T11:01:37.285Z,1.90
2023-05-06T11:04:10.740Z,1.90
2023-05-06T11:06:42.260Z,1.75
2023-05-06T11:09:19.723Z,1.40
2023-05-06T11:11:52.932Z,1.55
2023-05-06T11:14:35.484Z,1.58
2023-05-06T11:17:05.784Z,1.52
2023-05-06T11:19:35.458Z,1.50
2023-05-06T11:22:05.925Z,2.45
2023-05-06T11:24:41.459Z,1.70
2023-05-06T11:27:10.966Z,1.50
2023-05-06T11:29:39.547Z,1.60
2023-05-06T11:32:22.687Z,1.70
2023-05-06T11:34:55.521Z,1.55
2023-05-06T11:37:27.423Z,1.60
2023-05-06T11:39:57.290Z,1.70
2023-05-06T11:42:26.864Z,1.52
2023-05-06T11:44:56.363Z,1.45
2023-05-06T11:47:25.104Z,2.17
2023-05-06T11:49:56.381Z,1.90
2023-05-06T11:52:24.788Z,2.17
2023-05-06T11:54:54.373Z,1.60
2023-05-06T11:57:24.158Z,4.28
2023-05-06T11:59:55.524Z,1.40
2023-05-06T12:02:23.958Z,2.00
2023-05-06T12:04:53.537Z,1.40
2023-05-06T12:07:21.974Z,1.55
2023-05-06T12:09:52.253Z,1.50
2023-05-06T12:12:24.982Z,2.35
2023-05-06T12:14:54.377Z,1.40
2023-05-06T12:17:23.296Z,1.38
2023-05-06T12:19:51.797Z,1.52
2023-05-06T12:22:21.419Z,1.40
2023-05-06T12:24:50.732Z,1.58
2023-05-06T12:27:34.406Z,1.40
2023-05-06T12:30:04.532Z,1.30
2023-05-06T12:32:33.658Z,1.50
2023-05-06T12:35:05.706Z,1.83
2023-05-06T12:37:34.438Z,1.40
2023-05-06T12:40:03.886Z,1.35
2023-05-06T12:42:33.520Z,1.35
2023-05-06T12:45:14.598Z,1.50
2023-05-06T12:47:53.610Z,1.50
2023-05-06T12:50:35.927Z,1.52
2023-05-06T12:53:04.759Z,1.45
2023-05-06T12:55:33.509Z,1.25
2023-05-06T12:58:03.708Z,1.40
2023-05-06T13:00:32.160Z,1.40
2023-05-06T13:03:00.523Z,1.40
2023-05-06T13:05:29.117Z,1.48
2023-05-06T13:07:57.420Z,1.35
2023-05-06T13:10:26.197Z,1.58
2023-05-06T13:12:54.949Z,1.23
2023-05-06T13:15:25.302Z,1.48
2023-05-06T13:17:53.736Z,1.52
2023-05-06T13:20:22.031Z,1.38
2023-05-06T13:22:54.653Z,1.50
2023-05-06T13:25:24.155Z,1.52
2023-05-06T13:27:52.721Z,1.40
2023-05-06T13:30:21.111Z,1.20
2023-05-06T13:32:52.008Z,1.38
2023-05-06T13:35:20.721Z,1.08
2023-05-06T13:37:49.420Z,2.08
2023-05-06T13:40:18.464Z,1.30
2023-05-06T13:42:46.818Z,1.40
2023-05-06T13:45:15.588Z,1.40
2023-05-06T13:47:44.291Z,1.30
2023-05-06T13:50:14.276Z,1.20
2023-05-06T13:52:42.496Z,1.45
2023-05-06T13:55:11.369Z,1.50
2023-05-06T13:57:39.861Z,1.75
2023-05-06T14:00:11.074Z,2.00
2023-05-06T14:02:39.539Z,1.30
2023-05-06T14:05:09.078Z,1.50
2023-05-06T14:07:40.537Z,1.98
2023-05-06T14:10:10.409Z,1.42
2023-05-06T14:12:39.254Z,1.33
2023-05-06T14:15:08.741Z,1.60
2023-05-06T14:17:37.435Z,1.40
2023-05-06T14:20:06.840Z,1.35
2023-05-06T14:22:35.167Z,1.40
2023-05-06T14:25:05.177Z,1.50
2023-05-06T14:27:33.656Z,1.20
2023-05-06T14:30:08.210Z,1.23
2023-05-06T14:32:37.583Z,1.40
2023-05-06T14:35:09.476Z,1.38
2023-05-06T14:37:38.151Z,1.45
2023-05-06T14:40:10.136Z,1.60
2023-05-06T14:42:38.733Z,1.30
2023-05-06T14:45:08.704Z,1.45
2023-05-06T14:47:37.235Z,1.35
2023-05-06T14:50:06.314Z,1.30
2023-05-06T14:52:34.572Z,1.50
2023-05-06T14:55:02.915Z,2.00
2023-05-06T14:57:32.906Z,1.58
2023-05-06T15:00:01.253Z,1.50
2023-05-06T15:02:29.694Z,1.42
2023-05-06T15:04:58.375Z,1.40
2023-05-06T15:07:26.804Z,1.35
2023-05-06T15:09:55.099Z,1.60
2023-05-06T15:12:23.493Z,1.30
2023-05-06T15:14:53.301Z,1.30
2023-05-06T15:17:21.933Z,1.50
2023-05-06T15:19:50.214Z,1.40
2023-05-06T15:22:18.703Z,1.40
2023-05-06T15:24:47.349Z,1.30
2023-05-06T15:27:15.943Z,1.38
2023-05-06T15:29:44.248Z,1.50
2023-05-06T15:32:16.669Z,1.50
2023-05-06T15:34:44.950Z,1.20
2023-05-06T15:37:15.859Z,1.48
2023-05-06T15:39:44.173Z,2.70
2023-05-06T15:42:12.708Z,1.70
2023-05-06T15:44:41.381Z,1.10
2023-05-06T15:47:09.707Z,1.40
2023-05-06T15:52:10.739Z,2.45
2023-05-06T15:54:39.966Z,1.48
2023-05-06T15:57:09.887Z,2.28
2023-05-06T15:59:38.205Z,1.55
2023-05-06T16:04:39.836Z,1.40
2023-05-06T16:07:08.507Z,1.30
2023-05-06T16:09:37.128Z,1.30
2023-05-06T16:12:06.000Z,1.67
2023-05-06T16:14:34.664Z,5.43
2023-05-06T16:17:03.043Z,1.40
2023-05-06T16:19:34.726Z,2.45
2023-05-06T16:22:04.851Z,3.25
2023-05-06T16:24:33.170Z,1.88
2023-05-06T16:27:01.863Z,1.73
2023-05-06T16:29:30.718Z,1.90
2023-05-06T16:31:59.157Z,2.85
2023-05-06T16:34:27.816Z,1.70
2023-05-06T16:36:57.313Z,5.38
2023-05-06T16:39:27.234Z,1.80
2023-05-06T16:41:55.599Z,1.70
2023-05-06T16:44:24.051Z,1.98
2023-05-06T16:46:52.427Z,1.85
2023-05-06T16:49:22.019Z,1.90
2023-05-06T16:51:50.746Z,1.98
2023-05-06T16:54:19.088Z,2.03
2023-05-06T16:56:52.454Z,2.08
2023-05-06T16:59:22.370Z,1.98
2023-05-06T17:01:51.120Z,2.00
2023-05-06T17:04:19.458Z,1.90
2023-05-06T17:06:47.809Z,2.38
2023-05-06T17:09:16.444Z,2.45
2023-05-06T17:11:44.885Z,2.45
2023-05-06T17:14:15.105Z,2.10
2023-05-06T17:16:45.382Z,2.20
2023-05-06T17:19:14.002Z,2.80
2023-05-06T17:21:42.823Z,2.67
2023-05-06T17:24:11.626Z,2.70
2023-05-06T17:26:40.901Z,2.33
2023-05-06T17:29:12.479Z,2.45
2023-05-06T17:31:42.388Z,2.78
2023-05-06T17:34:10.922Z,2.40
2023-05-06T17:36:39.180Z,2.45
2023-05-06T17:39:07.913Z,3.15
2023-05-06T17:41:38.690Z,3.30
2023-05-06T17:44:07.684Z,3.30
2023-05-06T17:46:36.070Z,3.22
2023-05-06T17:49:05.815Z,2.70
2023-05-06T17:51:34.346Z,2.83
2023-05-06T17:54:02.591Z,3.20
2023-05-06T17:56:31.118Z,5.72
2023-05-06T17:59:02.720Z,8.43
2023-05-06T18:01:31.269Z,4.53
2023-05-06T18:04:00.232Z,5.60
2023-05-06T18:06:30.341Z,4.53
2023-05-06T18:08:58.711Z,4.20
2023-05-06T18:11:26.972Z,3.50
2023-05-06T18:13:55.492Z,3.92
2023-05-06T18:16:23.847Z,4.25
2023-05-06T18:18:52.218Z,3.50
2023-05-06T18:21:20.479Z,2.80
2023-05-06T18:23:55.648Z,3.17
2023-05-06T18:26:43.444Z,2.92
2023-05-06T18:29:13.812Z,2.70
2023-05-06T18:31:42.580Z,3.10
2023-05-06T18:34:11.481Z,2.80
2023-05-06T18:36:39.921Z,2.87
2023-05-06T18:39:09.781Z,2.92
2023-05-06T18:41:38.071Z,2.70
2023-05-06T18:44:06.566Z,3.17
2023-05-06T18:46:35.156Z,3.15
2023-05-06T18:49:03.754Z,3.10
2023-05-06T18:51:32.144Z,3.50
2023-05-06T18:54:00.512Z,2.70
2023-05-06T18:56:30.464Z,2.70
2023-05-06T18:58:58.733Z,3.00
2023-05-06T19:01:27.141Z,2.70
2023-05-06T19:03:58.039Z,2.60
2023-05-06T19:06:26.511Z,2.70
2023-05-06T19:08:54.816Z,3.00
2023-05-06T19:11:23.969Z,3.60
2023-05-06T19:13:53.649Z,9.47
2023-05-06T19:16:22.112Z,12.07
2023-05-06T19:18:50.972Z,7.30
2023-05-06T19:21:19.645Z,5.17
2023-05-06T19:23:48.368Z,4.60
2023-05-06T19:26:16.683Z,3.30
2023-05-06T19:28:45.087Z,3.90
2023-05-06T19:31:15.519Z,4.20
2023-05-06T19:33:44.553Z,9.20
2023-05-06T19:36:13.067Z,10.53
2023-05-06T19:38:41.483Z,8.00
2023-05-06T19:41:10.981Z,6.43
2023-05-06T19:43:43.116Z,6.90
2023-05-06T19:46:11.688Z,4.43
2023-05-06T19:48:41.338Z,4.10
2023-05-06T19:51:09.841Z,3.87
2023-05-06T19:53:38.414Z,4.57
2023-05-06T19:56:10.826Z,5.03
2023-05-06T19:58:39.619Z,5.20
2023-05-06T20:01:08.967Z,5.30
2023-05-06T20:03:37.737Z,5.60
2023-05-06T20:06:08.034Z,6.27
2023-05-06T20:08:36.489Z,5.70
2023-05-06T20:11:06.199Z,4.30
2023-05-06T20:13:34.649Z,3.90
2023-05-06T20:16:03.399Z,4.50
2023-05-06T20:18:32.004Z,4.40
2023-05-06T20:21:00.577Z,4.50
2023-05-06T20:23:30.760Z,4.90
2023-05-06T20:25:59.145Z,4.97
2023-05-06T20:28:28.044Z,5.70
2023-05-06T20:30:59.627Z,5.50
2023-05-06T20:33:28.121Z,6.10
2023-05-06T20:35:57.856Z,6.00
2023-05-06T20:38:27.237Z,6.60
2023-05-06T20:40:57.926Z,6.07
2023-05-06T20:43:26.450Z,7.83
2023-05-06T20:45:54.797Z,6.13
2023-05-06T20:48:23.152Z,5.70
2023-05-06T20:50:54.131Z,5.07
2023-05-06T20:53:22.691Z,6.23
2023-05-06T20:55:51.259Z,6.03
2023-05-06T20:58:24.775Z,5.30
2023-05-06T21:00:53.291Z,5.30
2023-05-06T21:03:22.491Z,4.80
2023-05-06T21:05:51.566Z,4.77
2023-05-06T21:08:20.066Z,4.90
2023-05-06T21:10:48.690Z,4.53
2023-05-06T21:13:17.212Z,4.63
2023-05-06T21:15:47.010Z,5.83
2023-05-06T21:18:16.595Z,6.73
2023-05-06T21:20:45.329Z,7.13
2023-05-06T21:23:13.728Z,7.27
2023-05-06T21:25:42.157Z,6.53
2023-05-06T21:28:10.491Z,6.17
2023-05-06T21:30:39.146Z,5.97
2023-05-06T21:33:11.142Z,5.87
2023-05-06T21:35:39.708Z,5.40
2023-05-06T21:38:08.289Z,5.93
2023-05-06T21:40:36.638Z,6.03
2023-05-06T21:43:04.918Z,5.93
2023-05-06T21:45:33.143Z,6.20
2023-05-06T21:48:01.475Z,6.23
2023-05-06T21:50:31.137Z,6.43
2023-05-06T21:52:59.485Z,6.60
2023-05-06T21:55:27.797Z,7.13
2023-05-06T21:57:56.182Z,7.17
2023-05-06T22:00:24.683Z,7.23
2023-05-06T22:02:53.581Z,7.27
2023-05-06T22:05:21.959Z,7.13
2023-05-06T22:07:52.041Z,6.50
2023-05-06T22:10:20.318Z,7.33
2023-05-06T22:12:48.622Z,7.20
2023-05-06T22:15:17.092Z,8.07
2023-05-06T22:17:45.843Z,7.83
2023-05-06T22:20:15.137Z,7.80
2023-05-06T22:22:43.991Z,8.50
2023-05-06T22:25:14.046Z,7.17
2023-05-06T22:27:42.364Z,7.87
2023-05-06T22:30:12.094Z,8.80
2023-05-06T22:32:40.382Z,7.80
2023-05-06T22:35:09.783Z,7.70
2023-05-06T22:37:38.173Z,8.07
2023-05-06T22:40:07.970Z,7.73
2023-05-06T22:42:37.722Z,6.77
2023-05-06T22:45:06.832Z,6.77
2023-05-06T22:47:35.030Z,6.53
2023-05-06T22:50:03.288Z,6.70
2023-05-06T22:52:32.294Z,7.33
2023-05-06T22:55:00.620Z,7.00
2023-05-06T22:57:28.979Z,7.17
2023-05-06T22:59:58.568Z,7.87
2023-05-06T23:02:27.093Z,7.03
2023-05-06T23:04:55.758Z,7.50
2023-05-06T23:07:24.032Z,6.50
2023-05-06T23:09:52.218Z,6.33
2023-05-06T23:12:20.376Z,6.10
2023-05-06T23:14:48.922Z,5.93
2023-05-06T23:17:18.479Z,5.80
2023-05-06T23:19:46.652Z,6.10
2023-05-06T23:22:15.275Z,5.70
2023-05-06T23:24:43.621Z,6.17
2023-05-06T23:27:11.952Z,6.40
2023-05-06T23:29:40.103Z,6.53
2023-05-06T23:32:08.278Z,6.93
2023-05-06T23:34:37.991Z,7.10
2023-05-06T23:37:06.271Z,7.07
2023-05-06T23:39:34.456Z,6.80
2023-05-06T23:42:03.320Z,7.00
2023-05-06T23:44:31.740Z,7.60
2023-05-06T23:47:00.016Z,8.27
2023-05-06T23:49:28.673Z,8.03
2023-05-06T23:51:58.444Z,9.30
2023-05-06T23:54:26.953Z,8.30
2023-05-06T23:56:55.683Z,8.10
2023-05-06T23:59:23.911Z,8.30
